Latest Coastal Weather Observations for Laverton

IDV60701

Issued at 12:51 pm EST Sunday 26 April 2015 (issued every 10 minutes, with the page automatically refreshed every 10 minutes)

About coastal observations | Map of coastal stations | Coastal observations for VIC | Marine services | Other Formats
Station Details ID: 087031 Name: LAVERTON RAAF Lat: -37.86 Lon: 144.76 Height: 20.1 m
Data from the previous 72 hours. | See also: Recent months at Laverton
Date/Time
EST
Temp

°C
Wind Pressure Rain
since 9am
mm
Weather Cloud Vis
km
Sea
Height
m
Swell
Dir
 
Speed
knots
Gust
knots
hPa Trend Height
m
Period
s
Dir
26/12:30pm 14.8 SW 13 18 1018.6 - 0.2 - Partly cloudy 10 - - - -
26/12:00pm 13.4 SW 12 18 1018.9 - 0.2 - Mostly cloudy 10 - - - -
26/11:30am 12.2 SW 13 19 1019.2 - 0.2 - Partly cloudy 9 - - - -
26/11:00am 12.5 SW 12 15 1019.0 - 0.2 - Partly cloudy 10 - - - -
26/10:32am 11.9 SW 10 15 1019.0 - 0.2 - Partly cloudy 10 - - - -
26/10:30am 11.8 SW 10 15 1019.0 - 0.2 - Partly cloudy 10 - - - -
26/10:23am 11.3 WSW 11 15 1019.0 - 0.2 - Partly cloudy 10 - - - -
26/10:17am 11.2 WSW 11 15 1019.1 - 0.2 - Partly cloudy 10 - - - -
26/10:00am 10.9 SW 12 17 1019.0 - 0.2 - Partly cloudy 4 - - - -
26/09:51am 11.0 WSW 12 19 1019.1 - 0.2 - Partly cloudy 5 - - - -
26/09:48am 11.0 SW 11 19 1019.0 - 0.2 - Partly cloudy 7 - - - -
26/09:30am 10.8 SW 9 14 1019.0 - 0.2 - Partly cloudy 10 - - - -
26/09:21am 10.6 WSW 11 16 1018.9 - 0.2 - Partly cloudy 10 - - - -
26/09:00am 10.6 WSW 13 19 1018.8 - 4.6 - Mostly cloudy 6 - - - -
26/08:48am 10.4 WSW 10 16 1018.6 - 4.6 - Partly cloudy 10 - - - -
26/08:30am 9.9 WSW 10 14 1018.5 - 4.6 - Partly cloudy 4 - - - -
26/08:19am 9.9 WSW 10 16 1018.4 - 4.6 - Partly cloudy 7 - - - -
26/08:11am 9.8 WSW 12 16 1018.2 - 4.6 - Partly cloudy 10 - - - -
26/08:00am 9.8 WSW 10 13 1018.1 - 4.6 - Partly cloudy 6 - - - -
26/07:44am 9.8 WSW 10 13 1017.9 - 4.6 - Partly cloudy 7 - - - -
26/07:30am 9.7 WSW 11 15 1017.6 - 4.6 - Partly cloudy 10 - - - -
26/07:00am 9.8 SW 12 18 1017.2 - 4.6 - Partly cloudy 3 - - - -
26/06:53am 10.0 SW 13 19 1017.2 - 4.4 - Partly cloudy 6 - - - -
26/06:30am 9.8 WSW 10 15 1016.8 - 4.4 - Partly cloudy 10 - - - -
26/06:00am 9.7 WSW 9 13 1016.6 - 4.4 - Partly cloudy 10 - - - -
26/05:47am 9.9 WSW 8 12 1016.5 - 4.4 - Partly cloudy 10 - - - -
26/05:30am 10.0 WSW 10 14 1016.4 - 4.4 - Partly cloudy 5 - - - -
26/05:28am 10.0 WSW 10 14 1016.4 - 4.4 - Partly cloudy 7 - - - -
26/05:00am 10.0 WSW 11 15 1016.2 - 4.4 - Partly cloudy 10 - - - -
26/04:30am 10.1 WSW 11 15 1015.8 - 4.4 - Partly cloudy 9 - - - -
26/04:00am 10.1 WSW 12 16 1015.7 - 4.4 - Partly cloudy 10 - - - -
26/03:30am 10.1 WSW 12 16 1015.4 - 4.4 - Partly cloudy 10 - - - -
26/03:00am 10.8 WSW 12 16 1015.4 - 4.4 - Cloudy 10 - - - -
26/02:30am 11.1 WSW 11 15 1015.4 - 4.4 - Partly cloudy 10 - - - -
26/02:00am 11.6 WSW 9 15 1015.4 - 4.4 - Partly cloudy 10 - - - -
26/01:30am 11.8 WSW 9 15 1015.4 - 4.4 - Partly cloudy 10 - - - -
26/01:00am 11.9 WSW 12 17 1015.1 - 4.4 - Partly cloudy 10 - - - -
26/12:30am 11.9 WSW 10 14 1014.8 - 4.4 - Partly cloudy 10 - - - -
26/12:00am 11.9 WSW 11 15 1014.7 - 4.4 - Cloudy 10 - - - -
 
Date/Time
EST
Temp

°C
Wind Pressure Rain
since 9am
mm
Weather Cloud Vis
km
Sea
Height
m
Swell
Dir
 
Speed
knots
Gust
knots
hPa Trend Height
m
Period
s
Dir
25/11:30pm 11.9 WSW 12 16 1014.4 - 4.4 - Cloudy 10 - - - -
25/11:00pm 12.2 WSW 8 12 1014.3 - 4.4 - Partly cloudy 10 - - - -
25/10:30pm 12.6 SW 10 14 1014.2 - 4.4 - Partly cloudy 10 - - - -
25/10:00pm 13.4 SSW 15 20 1013.9 - 4.4 - Partly cloudy 10 - - - -
25/09:30pm 13.4 SSW 15 20 1013.6 - 4.4 - Cloudy 10 - - - -
25/09:00pm 13.5 SSW 12 17 1013.4 - 4.4 - Cloudy 10 - - - -
25/08:30pm 13.6 SSW 13 18 1013.1 - 4.4 - Partly cloudy 10 - - - -
25/08:00pm 13.9 SSW 14 21 1012.5 - 4.4 - Partly cloudy 10 - - - -
25/07:30pm 14.0 SSW 14 18 1012.3 - 4.4 - Cloudy 10 - - - -
25/07:00pm 14.1 SSW 14 20 1011.9 - 4.4 - Cloudy 10 - - - -
25/06:30pm 13.9 SSW 12 17 1011.5 - 4.4 - Partly cloudy 10 - - - -
25/06:00pm 13.9 SSW 13 21 1011.0 - 4.4 Recent precip. Cloudy 10 - - - -
25/05:30pm 14.0 S 11 14 1010.5 - 4.2 - Partly cloudy 10 - - - -
25/05:08pm 13.9 SSW 9 12 1010.2 - 4.2 - Partly cloudy 10 - - - -
25/05:00pm 13.7 SSW 11 16 1010.2 - 4.2 - Partly cloudy 8 - - - -
25/04:58pm 13.7 SSW 12 20 1010.2 - 4.2 - Partly cloudy 7 - - - -
25/04:30pm 13.7 WSW 7 9 1009.9 - 4.2 - Partly cloudy 10 - - - -
25/04:00pm 13.4 WSW 8 12 1009.7 - 4.2 - Partly cloudy 10 - - - -
25/03:58pm 13.3 WSW 8 12 1009.7 - 4.2 - Partly cloudy 10 - - - -
25/03:41pm 13.3 WSW 8 10 1009.6 - 4.0 - Partly cloudy 4 - - - -
25/03:30pm 13.3 WSW 8 10 1009.5 - 2.6 - Partly cloudy 5 - - - -
25/03:22pm 13.5 WSW 8 12 1009.4 - 2.0 - Partly cloudy 7 - - - -
25/03:00pm 13.5 SW 9 12 1009.2 - 1.0 Recent precip. Cloudy 10 - - - -
25/02:30pm 13.7 SW 9 13 1008.9 - 1.0 - Partly cloudy 10 - - - -
25/02:00pm 14.5 SW 8 11 1008.7 - 0.6 - Partly cloudy 10 - - - -
25/01:58pm 14.5 SW 8 10 1008.7 - 0.6 - Partly cloudy 10 - - - -
25/01:30pm 14.3 W 6 9 1008.5 - 0.6 - Partly cloudy 10 - - - -
25/01:00pm 14.0 WNW 5 7 1008.6 - 0.4 - Partly cloudy 10 - - - -
25/12:30pm 13.8 W 5 7 1008.8 - 0.4 - Partly cloudy 10 - - - -
25/12:16pm 13.6 W 6 8 1008.8 - 0.4 - Partly cloudy 10 - - - -
25/12:00pm 13.5 W 6 8 1008.9 - 0.4 - Cloudy 10 - - - -
25/11:37am 13.2 W 6 9 1009.1 - 0.4 - Partly cloudy 10 - - - -
25/11:30am 13.1 W 7 9 1009.0 - 0.4 - Partly cloudy 10 - - - -
25/11:00am 12.7 WNW 7 8 1009.1 - 0.4 - Partly cloudy 10 - - - -
25/10:30am 12.3 W 5 7 1009.2 - 0.4 - Partly cloudy 10 - - - -
25/10:00am 11.7 W 7 9 1009.2 - 0.4 - Cloudy 10 - - - -
25/09:30am 11.3 NW 6 8 1009.0 - 0.4 - Partly cloudy 10 - - - -
25/09:00am 11.2 WNW 5 6 1008.6 - 6.0 - Mostly cloudy 10 - - - -
25/08:30am 10.9 WNW 4 5 1008.2 - 6.0 - Cloudy 10 - - - -
25/08:00am 10.8 WSW 3 5 1007.9 - 6.0 - Partly cloudy 10 - - - -
25/07:30am 10.8 CALM 0 0 1007.5 - 6.0 - Partly cloudy 10 - - - -
25/07:00am 10.8 W 4 6 1007.3 - 6.0 - Partly cloudy 10 - - - -
25/06:30am 10.9 W 5 8 1007.2 - 6.0 - Partly cloudy 10 - - - -
25/06:00am 11.0 WNW 7 8 1006.9 - 5.6 Rain Cloudy 10 - - - -
25/05:30am 11.2 W 7 9 1006.6 - 5.2 - Partly cloudy 10 - - - -
25/05:00am 11.4 WSW 7 11 1006.4 - 4.8 - Cloudy 10 - - - -
25/04:30am 11.8 W 7 9 1006.5 - 4.6 - Cloudy 10 - - - -
25/04:15am 11.9 W 6 9 1006.3 - 4.6 - Cloudy 10 - - - -
25/04:00am 12.1 W 7 9 1006.4 - 4.6 - Cloudy 10 - - - -
25/03:30am 12.3 WSW 6 10 1006.0 - 4.6 - Cloudy 10 - - - -
25/03:00am 12.7 NE 5 7 1006.1 - 4.2 - Cloudy 10 - - - -
25/02:51am 12.7 ENE 5 6 1006.0 - 4.2 - Partly cloudy 10 - - - -
25/02:30am 12.4 CALM 0 5 1006.2 - 4.2 - Partly cloudy 10 - - - -
25/02:00am 12.5 CALM 0 0 1006.2 - 4.2 - Cloudy 10 - - - -
25/01:30am 12.6 CALM 0 0 1006.2 - 4.2 - Partly cloudy 10 - - - -
25/01:00am 12.8 CALM 0 0 1006.5 - 3.8 - Partly cloudy 10 - - - -
25/12:56am 12.7 CALM 0 2 1006.6 - 3.8 - Partly cloudy 10 - - - -
25/12:46am 12.7 N 3 3 1006.7 - 3.8 - Partly cloudy 10 - - - -
25/12:30am 12.6 N 2 3 1006.6 - 3.8 - Partly cloudy 10 - - - -
25/12:00am 12.6 N 4 5 1006.5 - 3.8 Recent precip. Cloudy 10 - - - -
 
Date/Time
EST
Temp

°C
Wind Pressure Rain
since 9am
mm
Weather Cloud Vis
km
Sea
Height
m
Swell
Dir
 
Speed
knots
Gust
knots
hPa Trend Height
m
Period
s
Dir
24/11:30pm 12.6 WNW 3 5 1006.3 - 3.6 - Partly cloudy 10 - - - -
24/11:00pm 12.8 WSW 1 4 1006.1 - 3.6 - Cloudy 10 - - - -
24/10:30pm 13.0 CALM 0 4 1006.1 - 3.6 - Partly cloudy 10 - - - -
24/10:00pm 13.1 W 7 10 1005.9 - 3.2 - Partly cloudy 10 - - - -
24/09:53pm 13.1 W 7 10 1005.9 - 3.2 - Partly cloudy 10 - - - -
24/09:34pm 13.4 WNW 11 15 1006.0 - 2.4 - Partly cloudy 7 - - - -
24/09:30pm 13.5 WNW 11 15 1006.0 - 1.8 - Partly cloudy 10 - - - -
24/09:21pm 13.7 WNW 11 15 1006.0 - 1.0 - Partly cloudy 10 - - - -
24/09:02pm 14.2 WNW 15 21 1005.6 - 0.6 - Partly cloudy 7 - - - -
24/09:00pm 14.7 WNW 12 21 1005.5 - 0.0 - Cloudy 10 - - - -
24/08:30pm 15.9 S 4 5 1005.0 - 0.0 - Partly cloudy 10 - - - -
24/08:00pm 15.8 S 3 5 1004.7 - 0.0 - Partly cloudy 10 - - - -
24/07:30pm 16.3 CALM 0 0 1004.6 - 0.0 - Partly cloudy 10 - - - -
24/07:00pm 16.5 CALM 0 0 1004.6 - 0.0 - Partly cloudy 10 - - - -
24/06:30pm 17.1 S 3 4 1004.3 - 0.0 - Partly cloudy 10 - - - -
24/06:00pm 17.7 S 6 8 1003.7 - 0.0 - Cloudy 10 - - - -
24/05:30pm 18.4 SW 4 5 1003.3 - 0.0 - Partly cloudy 10 - - - -
24/05:00pm 19.0 WNW 5 9 1003.1 - 0.0 - Partly cloudy 10 - - - -
24/04:30pm 19.2 W 9 12 1003.1 - 0.0 - Partly cloudy 10 - - - -
24/04:00pm 19.2 W 8 11 1002.8 - 0.0 - Cloudy 10 - - - -
24/03:30pm 19.4 WSW 7 9 1002.7 - 0.0 - Partly cloudy 10 - - - -
24/03:00pm 19.3 W 8 11 1002.9 - 0.0 - Cloudy 10 - - - -
24/02:30pm 19.9 W 10 13 1002.9 - 0.0 - Partly cloudy 10 - - - -
24/02:00pm 19.8 WNW 9 12 1003.1 - 0.0 - Partly cloudy 10 - - - -
24/01:30pm 19.8 WNW 9 11 1003.2 - 0.0 - Partly cloudy 10 - - - -
24/01:00pm 19.9 WNW 11 14 1003.3 - 0.0 - Partly cloudy 10 - - - -
24/12:30pm 20.1 WNW 9 14 1003.6 - 0.0 - Partly cloudy 10 - - - -
24/12:00pm 19.1 WNW 8 11 1004.1 - 0.0 - Cloudy 10 - - - -
24/11:30am 19.1 NW 7 10 1004.6 - 0.0 - Partly cloudy 10 - - - -
24/11:00am 18.7 NW 5 8 1004.8 - 0.0 - - 10 - - - -
24/10:30am 17.5 NW 5 8 1004.9 - 0.0 - - 10 - - - -
24/10:00am 16.4 N 3 5 1005.2 - 0.0 - - 10 - - - -
24/09:30am 15.2 NNW 3 4 1005.4 - 0.0 - - 10 - - - -
24/09:00am 14.5 NNW 4 5 1005.5 - 0.0 - Cloudy 10 - - - -
24/08:30am 13.6 NNW 3 4 1005.3 - 0.0 - - 10 - - - -
24/08:00am 12.9 NNE 5 7 1005.5 - 0.0 - - 10 - - - -
24/07:30am 12.1 NNE 5 6 1005.2 - 0.0 - - 10 - - - -
24/07:00am 11.9 NNE 4 5 1005.1 - 0.0 - - 9 - - - -
24/06:30am 11.9 WNW 5 6 1004.9 - 0.0 - - 9 - - - -
24/06:00am 12.1 WNW 5 6 1005.1 - 0.0 - Cloudy 9 - - - -
24/05:53am 12.1 WNW 5 6 1005.1 - 0.0 - - 8 - - - -
24/05:35am 12.1 WNW 5 6 1005.1 - 0.0 - - 7 - - - -
24/05:34am 12.1 WNW 5 6 1005.1 - 0.0 - - 8 - - - -
24/05:30am 12.2 WNW 5 6 1005.1 - 0.0 - - 8 - - - -
24/05:07am 12.3 WNW 5 6 1005.3 - 0.0 - - 7 - - - -
24/05:00am 12.5 WNW 5 6 1005.3 - 0.0 - - 10 - - - -
24/04:30am 13.6 WNW 3 4 1005.3 - 0.0 - - 10 - - - -
24/04:00am 14.0 WNW 4 4 1005.5 - 0.0 - Partly cloudy 10 - - - -
24/03:30am 14.3 WNW 4 5 1006.0 - 0.0 - Partly cloudy 10 - - - -
24/03:00am 14.6 WNW 4 5 1006.5 - 0.0 - Mostly cloudy 10 - - - -
24/02:50am 14.6 WNW 5 6 1006.6 - 0.0 - Partly cloudy 10 - - - -
24/02:30am 14.8 WNW 4 5 1006.8 - 0.0 - Cloudy 10 - - - -
24/02:00am 15.3 WNW 4 5 1007.2 - 0.0 - Cloudy 10 - - - -
24/01:30am 15.3 WNW 7 9 1007.4 - 0.0 - Cloudy 10 - - - -
24/01:00am 15.1 SSW 2 4 1007.6 - 0.0 - Cloudy 10 - - - -
24/12:30am 15.0 SSW 3 4 1008.0 - 0.0 - Cloudy 10 - - - -
24/12:00am 15.1 CALM 0 0 1008.4 - 0.0 - Cloudy 10 - - - -
 
Date/Time
EST
Temp

°C
Wind Pressure Rain
since 9am
mm
Weather Cloud Vis
km
Sea
Height
m
Swell
Dir
 
Speed
knots
Gust
knots
hPa Trend Height
m
Period
s
Dir
23/11:46pm 15.1 CALM 0 0 1008.6 - 0.0 - Partly cloudy 10 - - - -
23/11:30pm 15.2 CALM 0 0 1008.8 - 0.0 - Cloudy 10 - - - -
23/11:00pm 15.3 ESE 1 4 1009.2 - 0.0 - Partly cloudy 10 - - - -
23/10:30pm 15.4 SE 3 5 1009.9 - 0.0 - Partly cloudy 10 - - - -
23/10:22pm 15.4 SE 4 6 1009.9 - 0.0 - Partly cloudy 10 - - - -
23/10:00pm 15.8 SE 6 7 1010.0 - 0.0 - Partly cloudy 10 - - - -
23/09:30pm 16.1 ESE 5 7 1010.6 - 0.0 - Cloudy 10 - - - -
23/09:13pm 16.2 SE 4 5 1010.8 - 0.0 - Partly cloudy 10 - - - -
23/09:00pm 16.2 SSE 5 7 1010.8 - 0.0 - Cloudy 10 - - - -
23/08:30pm 16.2 SSE 5 7 1010.9 - 0.0 - Partly cloudy 10 - - - -
23/08:00pm 16.3 SSE 7 9 1011.0 - 0.0 - Partly cloudy 10 - - - -
23/07:30pm 16.4 S 7 10 1011.8 - 0.0 - Partly cloudy 10 - - - -
23/07:00pm 16.3 S 7 10 1012.1 - 0.0 - Cloudy 10 - - - -
23/06:30pm 16.4 S 7 10 1012.2 - 0.0 - Partly cloudy 10 - - - -
23/06:00pm 16.4 S 7 10 1012.2 - 0.0 - Cloudy 10 - - - -
23/05:30pm 16.5 S 8 11 1012.2 - 0.0 - Partly cloudy 10 - - - -
23/05:00pm 16.6 S 9 13 1012.1 - 0.0 - Partly cloudy 10 - - - -
23/04:30pm 17.1 S 7 10 1012.4 - 0.0 - Cloudy 10 - - - -
23/04:00pm 17.0 SSE 8 11 1012.6 - 0.0 - Cloudy 10 - - - -
23/03:30pm 17.1 S 8 12 1013.0 - 0.0 - Cloudy 10 - - - -
23/03:00pm 17.0 SSE 10 13 1013.4 - 0.0 - Cloudy 10 - - - -
23/02:30pm 17.4 SSE 8 13 1013.7 - 0.0 - Cloudy 10 - - - -
23/02:00pm 17.2 SSE 9 13 1013.9 - 0.0 - Cloudy 10 - - - -
23/01:30pm 17.2 SSE 11 14 1014.2 - 0.0 - Cloudy 10 - - - -
23/01:00pm 17.1 SSE 9 14 1014.9 - 0.0 - Partly cloudy 10 - - - -

Other Formats:

Comma delimited format used in spreadsheet applications
http://www.bom.gov.au/fwo/IDV60701/IDV60701.94865.axf

JavaScript Object Notation format (JSON) in row-major order
http://www.bom.gov.au/fwo/IDV60701/IDV60701.94865.json